Time;durP1;ratioP1;P1;durP2;ratioP2;P2;SDS_P1;SDS_P2;PMS_P1;PMS_P2;Temp;Humidity;BMP_temperature;BMP_pressure;BME280_temperature;BME280_humidity;BME280_pressure;Samples;Min_cycle;Max_cycle;Signal;HPM_P1;HPM_P2
2022/09/18 00:00:50;;;;;;;2.90;0.60;;;;;;;9.50;100.00;97581.44;2611502;28;20136;-84
2022/09/18 00:02:19;;;;;;;1.80;0.90;;;;;;;9.61;100.00;97576.66;2612320;28;20060;-83
2022/09/18 00:03:35;;;;;;;2.25;0.90;;;;;;;9.58;100.00;97582.00;2612584;28;20739;-85
2022/09/18 00:04:51;;;;;;;5.28;0.90;;;;;;;9.55;100.00;97584.75;2613124;28;20053;-82
2022/09/18 00:06:08;;;;;;;1.17;0.70;;;;;;;9.64;100.00;97581.78;2611076;28;20048;-83
2022/09/18 00:07:24;;;;;;;1.23;0.70;;;;;;;9.68;100.00;97577.28;2610466;28;20063;-84
2022/09/18 00:08:42;;;;;;;2.90;0.70;;;;;;;9.34;100.00;97579.38;2610231;28;20126;-84
2022/09/18 00:09:58;;;;;;;3.00;1.00;;;;;;;9.43;100.00;97580.84;2610542;28;20053;-84
2022/09/18 00:11:14;;;;;;;3.13;0.80;;;;;;;9.49;100.00;97587.56;2612071;28;20051;-87
2022/09/18 00:12:30;;;;;;;3.20;0.90;;;;;;;9.40;100.00;97584.41;2609778;28;20052;-85
2022/09/18 00:13:46;;;;;;;1.38;0.73;;;;;;;9.42;100.00;97593.03;2610580;28;20049;-85
2022/09/18 00:15:02;;;;;;;1.88;0.70;;;;;;;9.24;100.00;97583.28;2610933;28;20049;-85
2022/09/18 00:16:20;;;;;;;2.50;1.00;;;;;;;9.41;100.00;97585.25;2611306;28;20051;-85
2022/09/18 00:17:35;;;;;;;2.28;0.95;;;;;;;9.54;100.00;97590.88;2610164;28;20411;-83
2022/09/18 00:18:51;;;;;;;1.98;0.82;;;;;;;9.38;100.00;97591.44;2612459;28;20264;-83
2022/09/18 00:20:08;;;;;;;2.08;0.80;;;;;;;9.32;100.00;97589.06;2610174;28;20059;-84
2022/09/18 00:21:24;;;;;;;3.20;0.93;;;;;;;9.21;100.00;97583.34;2612041;28;20869;-86
2022/09/18 00:22:39;;;;;;;3.05;1.00;;;;;;;9.26;100.00;97590.13;2612096;28;20095;-83
2022/09/18 00:23:57;;;;;;;3.08;0.95;;;;;;;9.23;100.00;97585.03;2610453;28;20084;-83
2022/09/18 00:25:13;;;;;;;6.13;1.05;;;;;;;9.32;100.00;97589.06;2609650;28;20052;-85
2022/09/18 00:26:29;;;;;;;2.45;1.00;;;;;;;9.31;100.00;97587.34;2610736;28;20408;-85
2022/09/18 00:27:44;;;;;;;1.02;0.65;;;;;;;9.19;100.00;97589.50;2611532;28;20059;-83
2022/09/18 00:29:00;;;;;;;4.68;0.98;;;;;;;9.41;100.00;97591.34;2612988;28;20048;-85
2022/09/18 00:30:16;;;;;;;3.70;0.75;;;;;;;9.11;100.00;97593.28;2610867;28;20487;-84
2022/09/18 00:31:34;;;;;;;1.67;1.08;;;;;;;9.15;100.00;97581.81;2610688;28;20049;-87
2022/09/18 00:32:50;;;;;;;1.52;1.20;;;;;;;9.05;100.00;97604.81;2612575;28;20049;-84
2022/09/18 00:34:09;;;;;;;1.30;0.85;;;;;;;9.25;100.00;97584.97;2612063;28;20048;-84
2022/09/18 00:35:25;;;;;;;1.70;0.80;;;;;;;9.27;100.00;97591.00;2609493;28;20053;-85
2022/09/18 00:36:41;;;;;;;2.00;1.00;;;;;;;9.23;100.00;97589.41;2611176;28;20488;-82
2022/09/18 00:37:56;;;;;;;2.25;0.90;;;;;;;9.40;100.00;97587.03;2611094;28;20065;-84
2022/09/18 00:39:12;;;;;;;0.77;0.70;;;;;;;9.16;100.00;97589.63;2612145;28;20356;-87
2022/09/18 00:40:28;;;;;;;1.67;0.88;;;;;;;8.96;100.00;97595.53;2610053;28;20052;-84
2022/09/18 00:41:44;;;;;;;4.35;0.85;;;;;;;9.03;100.00;97598.78;2612438;28;20078;-83
2022/09/18 00:43:16;;;;;;;3.17;1.00;;;;;;;9.17;100.00;97599.16;2609589;28;20083;-85
2022/09/18 00:44:37;;;;;;;3.75;1.00;;;;;;;9.30;100.00;97598.72;2611292;28;20055;-84
2022/09/18 00:46:06;;;;;;;1.20;0.80;;;;;;;9.09;100.00;97595.97;2612564;28;20411;-83
2022/09/18 00:47:23;;;;;;;4.28;0.80;;;;;;;9.13;100.00;97597.56;2612196;28;20411;-84
2022/09/18 00:48:44;;;;;;;0.70;0.70;;;;;;;9.07;100.00;97597.75;2600144;28;20053;-85
2022/09/18 00:50:17;;;;;;;3.22;0.90;;;;;;;9.04;100.00;97601.34;2606038;28;20052;-83
2022/09/18 00:51:36;;;;;;;2.70;1.00;;;;;;;9.12;100.00;97606.31;2611201;28;20053;-82
2022/09/18 00:53:02;;;;;;;3.10;1.00;;;;;;;9.15;100.00;97593.13;2610652;28;20063;-82
2022/09/18 00:54:24;;;;;;;0.30;0.30;;;;;;;8.99;100.00;97600.66;2612163;28;20044;-83
2022/09/18 00:55:41;;;;;;;1.80;0.73;;;;;;;8.93;100.00;97600.88;2611463;28;20045;-82
2022/09/18 00:57:00;;;;;;;3.08;1.00;;;;;;;9.06;100.00;97603.91;2609258;28;20071;-81
2022/09/18 00:58:16;;;;;;;1.02;0.77;;;;;;;9.03;100.00;97607.50;2610570;28;20186;-83
2022/09/18 00:59:33;;;;;;;1.70;0.77;;;;;;;9.03;100.00;97610.09;2611205;28;20056;-83
2022/09/18 01:00:49;;;;;;;3.38;1.00;;;;;;;9.03;100.00;97604.00;2611537;28;20507;-82
2022/09/18 01:02:05;;;;;;;3.88;1.10;;;;;;;9.23;100.00;97599.84;2610900;28;20618;-82
2022/09/18 01:03:20;;;;;;;3.17;0.90;;;;;;;9.02;100.00;97605.78;2612298;28;20052;-85
2022/09/18 01:04:36;;;;;;;2.20;0.90;;;;;;;9.00;100.00;97607.56;2612879;28;20053;-83
2022/09/18 01:06:14;;;;;;;0.98;0.75;;;;;;;8.93;100.00;97607.84;2610642;28;20198;-82
2022/09/18 01:07:51;;;;;;;4.28;1.05;;;;;;;8.73;100.00;97610.25;2606160;28;20221;-83
2022/09/18 01:09:14;;;;;;;2.83;1.00;;;;;;;8.87;100.00;97612.38;2609783;28;20059;-87
2022/09/18 01:11:00;;;;;;;1.83;1.13;;;;;;;8.96;100.00;97618.19;2611121;28;20048;-84
2022/09/18 01:12:37;;;;;;;6.70;1.15;;;;;;;9.04;100.00;97616.16;2612211;28;20060;-85
2022/09/18 01:14:35;;;;;;;2.83;1.10;;;;;;;8.89;100.00;97613.19;2611034;28;20055;-82
2022/09/18 01:15:56;;;;;;;2.17;1.10;;;;;;;8.93;100.00;97613.06;2612054;28;20048;-82
2022/09/18 01:17:28;;;;;;;1.00;0.80;;;;;;;8.89;100.00;97612.34;2611286;28;20184;-86
2022/09/18 01:19:00;;;;;;;2.22;0.85;;;;;;;8.69;100.00;97618.25;2611075;28;20060;-84
2022/09/18 01:20:35;;;;;;;2.05;0.95;;;;;;;8.75;100.00;97621.50;2611442;28;20048;-83
2022/09/18 01:22:00;;;;;;;6.25;1.30;;;;;;;8.72;100.00;97618.97;2610800;28;20398;-82
2022/09/18 01:23:27;;;;;;;4.53;0.90;;;;;;;8.79;100.00;97617.00;2610156;28;20056;-85
2022/09/18 01:25:15;;;;;;;2.53;0.90;;;;;;;8.88;100.00;97616.69;2609418;28;20044;-86
2022/09/18 01:26:42;;;;;;;2.35;1.00;;;;;;;8.84;100.00;97617.72;2611995;28;20057;-83
2022/09/18 01:28:23;;;;;;;3.55;1.15;;;;;;;8.90;100.00;97612.28;2609329;28;20130;-82
2022/09/18 01:29:54;;;;;;;3.50;1.10;;;;;;;8.83;100.00;97616.00;2609202;28;20057;-82
2022/09/18 01:31:18;;;;;;;7.30;1.20;;;;;;;8.86;100.00;97610.69;2609495;28;20574;-85
2022/09/18 01:32:52;;;;;;;5.00;1.00;;;;;;;8.88;100.00;97616.69;2611528;28;20139;-84
2022/09/18 01:34:16;;;;;;;3.50;1.00;;;;;;;8.81;100.00;97612.59;2612110;28;20083;-83
2022/09/18 01:35:54;;;;;;;1.55;1.08;;;;;;;8.78;100.00;97612.69;2610630;28;20155;-82
2022/09/18 01:37:24;;;;;;;2.60;1.05;;;;;;;8.94;100.00;97613.03;2610796;28;20082;-83
2022/09/18 01:38:48;;;;;;;2.00;0.85;;;;;;;8.75;100.00;97608.44;2612300;28;20056;-88
2022/09/18 01:40:07;;;;;;;4.60;1.02;;;;;;;8.71;100.00;97622.47;2610170;28;20053;-84
2022/09/18 01:41:25;;;;;;;3.55;1.17;;;;;;;8.72;100.00;97613.75;2611973;28;20048;-83
2022/09/18 01:42:44;;;;;;;1.55;0.95;;;;;;;8.83;100.00;97610.78;2609450;28;20400;-83
2022/09/18 01:44:12;;;;;;;2.75;1.00;;;;;;;8.75;100.00;97611.06;2612840;28;20497;-84
2022/09/18 01:45:34;;;;;;;4.97;1.10;;;;;;;8.83;100.00;97618.63;2610970;28;20052;-83
2022/09/18 01:46:50;;;;;;;;;;;;;;;8.84;100.00;97622.94;2610772;28;20130;-83
2022/09/18 01:48:07;;;;;;;2.17;0.90;;;;;;;8.74;100.00;97621.53;2610426;28;19974;-83
2022/09/18 01:49:28;;;;;;;0.80;0.57;;;;;;;8.95;100.00;97622.56;2611701;28;20396;-83
2022/09/18 01:50:50;;;;;;;2.08;0.65;;;;;;;8.63;100.00;97621.91;2611354;28;20625;-82
2022/09/18 01:52:10;;;;;;;4.70;0.93;;;;;;;8.52;100.00;97624.88;2610030;28;20203;-84
2022/09/18 01:53:32;;;;;;;2.53;1.10;;;;;;;8.69;100.00;97623.47;2611585;28;20515;-83
2022/09/18 01:54:51;;;;;;;3.28;0.80;;;;;;;8.51;100.00;97615.31;2612253;28;20512;-83
2022/09/18 01:56:23;;;;;;;2.78;0.70;;;;;;;8.68;100.00;97622.59;2612332;28;20055;-83
2022/09/18 01:57:50;;;;;;;7.03;0.63;;;;;;;8.71;100.00;97619.03;2619075;28;20113;-82
2022/09/18 01:59:12;;;;;;;2.47;0.77;;;;;;;8.65;100.00;97614.88;2620084;28;20049;-84
2022/09/18 02:00:30;;;;;;;1.52;0.60;;;;;;;8.69;100.00;97616.47;2619181;28;20045;-88
2022/09/18 02:01:48;;;;;;;1.98;1.42;;;;;;;8.70;100.00;97614.72;2613605;28;20369;-84
2022/09/18 02:03:18;;;;;;;1.23;0.60;;;;;;;8.75;100.00;97620.63;2611876;28;20076;-83
2022/09/18 02:04:37;;;;;;;0.80;0.68;;;;;;;8.76;100.00;97617.97;2612252;28;20048;-82
2022/09/18 02:05:58;;;;;;;1.52;0.70;;;;;;;8.75;100.00;97626.72;2612114;28;20475;-89
2022/09/18 02:07:35;;;;;;;2.70;0.80;;;;;;;8.93;100.00;97621.75;2610921;28;20363;-85
2022/09/18 02:08:56;;;;;;;4.40;0.90;;;;;;;9.00;100.00;97627.63;2611826;28;20049;-84
2022/09/18 02:10:12;;;;;;;1.30;0.60;;;;;;;8.82;100.00;97627.34;2610771;28;20053;-82
2022/09/18 02:11:30;;;;;;;4.07;1.08;;;;;;;8.66;100.00;97620.94;2610094;28;20052;-85
2022/09/18 02:12:47;;;;;;;2.78;0.85;;;;;;;8.73;100.00;97625.06;2613347;28;20351;-84
2022/09/18 02:14:10;;;;;;;1.15;0.70;;;;;;;8.68;100.00;97619.16;2611814;28;20049;-84
2022/09/18 02:15:31;;;;;;;5.03;1.00;;;;;;;8.79;100.00;97624.81;2611569;28;21129;-84
2022/09/18 02:16:59;;;;;;;5.05;0.93;;;;;;;8.81;100.00;97628.25;2614246;28;20147;-85
2022/09/18 02:18:25;;;;;;;1.95;0.80;;;;;;;8.80;100.00;97626.56;2612784;28;20150;-83
2022/09/18 02:19:55;;;;;;;4.13;1.08;;;;;;;8.82;100.00;97629.97;2613086;28;20515;-84
2022/09/18 02:21:16;;;;;;;3.78;0.95;;;;;;;8.80;100.00;97626.56;2612473;28;20049;-86
2022/09/18 02:22:33;;;;;;;3.55;0.82;;;;;;;8.88;100.00;97626.31;2612193;28;20052;-84
2022/09/18 02:23:50;;;;;;;3.33;0.90;;;;;;;8.85;100.00;97623.78;2611833;28;20056;-83
2022/09/18 02:25:07;;;;;;;3.55;0.90;;;;;;;8.85;100.00;97624.63;2612572;28;20144;-87
2022/09/18 02:26:23;;;;;;;5.93;0.80;;;;;;;8.67;100.00;97618.28;2610918;28;20076;-84
2022/09/18 02:27:40;;;;;;;2.67;0.82;;;;;;;8.61;100.00;97627.16;2611367;28;20060;-85
2022/09/18 02:28:56;;;;;;;3.42;0.80;;;;;;;8.68;100.00;97619.97;2611805;28;20537;-84
2022/09/18 02:30:12;;;;;;;3.50;0.90;;;;;;;8.89;100.00;97626.22;2612316;28;20103;-84
2022/09/18 02:31:28;;;;;;;6.18;0.90;;;;;;;8.88;100.00;97626.31;2613854;28;20049;-87
2022/09/18 02:32:44;;;;;;;3.35;0.90;;;;;;;8.82;100.00;97635.19;2613596;28;20041;-86
2022/09/18 02:34:00;;;;;;;2.08;1.13;;;;;;;8.87;100.00;97625.44;2610531;28;20048;-84
2022/09/18 02:35:15;;;;;;;4.13;0.70;;;;;;;8.92;100.00;97627.03;2612500;28;20843;-84
2022/09/18 02:36:54;;;;;;;3.58;0.82;;;;;;;8.94;100.00;97627.81;2612910;28;20516;-84
2022/09/18 02:38:23;;;;;;;2.45;1.10;;;;;;;9.10;100.00;97621.19;2610664;28;20049;-85
2022/09/18 02:40:23;;;;;;;3.60;0.73;;;;;;;8.83;100.00;97631.66;2610998;28;20505;-85
2022/09/18 02:41:54;;;;;;;3.75;0.90;;;;;;;8.99;100.00;97631.13;2606778;28;20496;-87
2022/09/18 02:43:27;;;;;;;0.70;0.63;;;;;;;9.08;100.00;97636.06;2611026;28;20594;-84
2022/09/18 02:44:53;;;;;;;2.10;0.68;;;;;;;8.97;100.00;97631.19;2612053;28;20064;-87
2022/09/18 02:46:35;;;;;;;2.92;0.80;;;;;;;8.92;100.00;97627.88;2611120;28;20064;-84
2022/09/18 02:48:10;;;;;;;;;;;;;;;8.99;100.00;97624.16;2612520;28;20060;-84
2022/09/18 02:49:37;;;;;;;2.42;0.80;;;;;;;8.99;100.00;97631.97;2614159;28;20363;-86
2022/09/18 02:51:14;;;;;;;0.77;0.70;;;;;;;9.01;100.00;97624.09;2611496;28;20091;-83
2022/09/18 02:52:45;;;;;;;5.47;0.90;;;;;;;8.80;100.00;97623.94;2611478;28;20049;-87
2022/09/18 02:54:10;;;;;;;3.15;0.80;;;;;;;8.68;100.00;97624.38;2613756;28;20056;-82
2022/09/18 02:55:52;;;;;;;4.60;1.10;;;;;;;8.85;100.00;97627.25;2611887;28;20076;-84
2022/09/18 02:57:15;;;;;;;1.55;0.50;;;;;;;8.71;100.00;97622.47;2608304;28;20057;-83
2022/09/18 02:58:57;;;;;;;4.10;0.80;;;;;;;8.85;100.00;97632.47;2612698;28;20044;-84
2022/09/18 03:00:17;;;;;;;1.55;0.80;;;;;;;8.76;100.00;97620.59;2601870;28;20492;-83
2022/09/18 03:01:33;;;;;;;2.67;1.02;;;;;;;8.80;100.00;97612.66;2612827;28;20123;-83
2022/09/18 03:02:49;;;;;;;2.05;0.60;;;;;;;8.81;100.00;97622.19;2610089;28;20094;-83
2022/09/18 03:04:11;;;;;;;1.35;0.80;;;;;;;8.74;100.00;97626.75;2612746;28;20111;-82
2022/09/18 03:05:26;;;;;;;3.08;0.80;;;;;;;8.51;100.00;97620.53;2611287;28;20160;-83
2022/09/18 03:06:42;;;;;;;4.25;0.80;;;;;;;8.79;100.00;97626.59;2610526;28;20045;-82
2022/09/18 03:07:57;;;;;;;2.42;1.00;;;;;;;8.91;100.00;97634.03;2611263;28;20045;-83
2022/09/18 03:09:15;;;;;;;5.38;1.08;;;;;;;8.94;100.00;97623.47;2613216;28;20131;-82
2022/09/18 03:10:30;;;;;;;1.60;0.60;;;;;;;8.83;100.00;97630.81;2611394;28;20072;-83
2022/09/18 03:11:46;;;;;;;1.98;0.80;;;;;;;8.95;100.00;97624.34;2611950;28;20056;-84
2022/09/18 03:13:02;;;;;;;4.85;0.80;;;;;;;8.93;100.00;97634.81;2611993;28;20382;-83
2022/09/18 03:14:17;;;;;;;1.75;0.60;;;;;;;8.97;100.00;97631.19;2612513;28;20143;-83
2022/09/18 03:15:33;;;;;;;2.35;0.63;;;;;;;8.92;100.00;97629.63;2612260;28;20457;-82
2022/09/18 03:16:48;;;;;;;4.97;1.15;;;;;;;8.82;100.00;97632.59;2610911;28;20483;-85
2022/09/18 03:18:04;;;;;;;3.78;0.75;;;;;;;8.86;100.00;97636.78;2610917;28;20806;-84
2022/09/18 03:19:20;;;;;;;1.70;0.52;;;;;;;8.84;100.00;97637.72;2612020;28;20084;-84
2022/09/18 03:20:35;;;;;;;1.55;0.70;;;;;;;8.64;100.00;97638.41;2611290;28;20799;-82
2022/09/18 03:21:51;;;;;;;1.13;0.60;;;;;;;8.80;100.00;97646.56;2612193;28;20048;-86
2022/09/18 03:23:07;;;;;;;1.00;0.50;;;;;;;8.94;100.00;97633.91;2611661;28;20410;-84
2022/09/18 03:24:26;;;;;;;2.67;0.38;;;;;;;8.84;100.00;97632.50;2610874;28;20064;-82
2022/09/18 03:25:42;;;;;;;0.50;0.47;;;;;;;8.93;100.00;97636.56;2613895;28;20068;-83
2022/09/18 03:26:57;;;;;;;1.05;0.95;;;;;;;9.04;100.00;97640.53;2612051;28;20052;-85
2022/09/18 03:28:13;;;;;;;1.15;0.68;;;;;;;8.96;100.00;97639.09;2610332;28;20049;-85
2022/09/18 03:29:28;;;;;;;0.95;0.60;;;;;;;8.99;100.00;97646.81;2612582;28;20049;-84
2022/09/18 03:30:44;;;;;;;1.23;0.60;;;;;;;8.93;100.00;97637.44;2612329;28;20268;-86
2022/09/18 03:32:00;;;;;;;0.85;0.65;;;;;;;8.95;100.00;97640.81;2610611;28;20064;-83
2022/09/18 03:33:16;;;;;;;2.47;1.13;;;;;;;8.85;100.00;97644.66;2612867;28;20052;-85
2022/09/18 03:34:32;;;;;;;1.67;0.70;;;;;;;8.96;100.00;97633.88;2610361;28;20041;-83
2022/09/18 03:35:48;;;;;;;3.63;0.80;;;;;;;8.94;100.00;97638.25;2611076;28;20053;-85
2022/09/18 03:37:03;;;;;;;3.10;0.90;;;;;;;9.01;100.00;97645.00;2611426;28;20048;-85
2022/09/18 03:38:20;;;;;;;0.63;0.52;;;;;;;8.98;100.00;97650.31;2610953;28;20091;-84
2022/09/18 03:39:35;;;;;;;4.72;0.90;;;;;;;8.94;100.00;97652.19;2609803;28;20061;-83
2022/09/18 03:40:51;;;;;;;2.75;0.80;;;;;;;8.92;100.00;97647.91;2612100;28;20517;-83
2022/09/18 03:42:06;;;;;;;2.97;0.90;;;;;;;8.97;100.00;97643.41;2611214;28;20048;-82
2022/09/18 03:43:22;;;;;;;2.38;0.68;;;;;;;8.97;100.00;97643.41;2613214;28;20053;-84
2022/09/18 03:44:38;;;;;;;1.80;0.63;;;;;;;8.82;100.00;97650.84;2613525;28;20071;-88
2022/09/18 03:45:53;;;;;;;1.30;0.70;;;;;;;9.00;100.00;97651.13;2610724;28;20059;-83
2022/09/18 03:47:09;;;;;;;0.65;0.60;;;;;;;8.90;100.00;97647.97;2611194;28;20076;-83
2022/09/18 03:48:25;;;;;;;3.30;1.30;;;;;;;8.94;100.00;97648.69;2612239;28;20060;-83
2022/09/18 03:49:40;;;;;;;1.45;0.63;;;;;;;9.05;100.00;97654.41;2612444;28;20053;-83
2022/09/18 03:50:56;;;;;;;1.95;0.60;;;;;;;8.97;100.00;97659.06;2611456;28;20908;-83
2022/09/18 03:52:12;;;;;;;3.03;0.68;;;;;;;8.92;100.00;97650.50;2612960;28;20048;-83
2022/09/18 03:53:27;;;;;;;3.03;0.55;;;;;;;8.87;100.00;97653.28;2610723;28;20495;-82
2022/09/18 03:54:43;;;;;;;2.55;1.00;;;;;;;8.96;100.00;97659.97;2612184;28;20040;-84
2022/09/18 03:55:58;;;;;;;3.78;0.88;;;;;;;8.88;100.00;97658.47;2612363;28;20075;-84
2022/09/18 03:57:14;;;;;;;2.92;0.90;;;;;;;8.93;100.00;97667.88;2610258;28;20044;-84
2022/09/18 03:58:29;;;;;;;3.65;1.00;;;;;;;8.81;100.00;97653.50;2612236;28;20052;-86
2022/09/18 03:59:45;;;;;;;3.20;0.80;;;;;;;8.76;100.00;97662.34;2610201;28;20061;-83
2022/09/18 04:01:01;;;;;;;1.92;0.60;;;;;;;8.76;100.00;97658.88;2600227;28;20194;-85
2022/09/18 04:02:17;;;;;;;2.38;0.73;;;;;;;8.84;100.00;97664.69;2604834;28;20045;-83
2022/09/18 04:03:33;;;;;;;2.20;0.82;;;;;;;8.84;100.00;97669.06;2612055;28;20055;-84
2022/09/18 04:04:48;;;;;;;4.20;0.93;;;;;;;8.86;100.00;97665.50;2611380;28;20049;-83
2022/09/18 04:06:04;;;;;;;3.15;0.93;;;;;;;8.84;100.00;97671.66;2610179;28;20106;-87
2022/09/18 04:07:20;;;;;;;6.40;0.65;;;;;;;9.02;100.00;97667.59;2611361;28;20052;-82
2022/09/18 04:08:36;;;;;;;0.70;0.45;;;;;;;9.00;100.00;97672.00;2610377;28;20535;-83
2022/09/18 04:09:52;;;;;;;3.03;1.00;;;;;;;9.15;100.00;97673.22;2610942;28;20487;-83
2022/09/18 04:11:07;;;;;;;2.85;0.73;;;;;;;8.97;100.00;97669.50;2610370;28;20063;-83
2022/09/18 04:12:23;;;;;;;4.35;0.85;;;;;;;9.03;100.00;97679.72;2611254;28;20532;-83
2022/09/18 04:13:39;;;;;;;3.75;0.90;;;;;;;8.85;100.00;97670.75;2610814;28;20510;-83
2022/09/18 04:14:54;;;;;;;4.13;0.88;;;;;;;8.99;100.00;97672.91;2611190;28;20935;-85
2022/09/18 04:16:10;;;;;;;3.35;0.68;;;;;;;8.93;100.00;97684.41;2611215;28;20095;-83
2022/09/18 04:17:26;;;;;;;1.15;0.70;;;;;;;9.07;100.00;97677.88;2610627;28;20055;-85
2022/09/18 04:18:42;;;;;;;2.00;0.68;;;;;;;9.08;100.00;97679.56;2611159;28;20418;-84
2022/09/18 04:19:57;;;;;;;3.53;0.80;;;;;;;9.00;100.00;97674.63;2610032;28;20065;-84
2022/09/18 04:21:13;;;;;;;1.70;0.60;;;;;;;9.02;100.00;97683.25;2611812;28;20107;-85
2022/09/18 04:22:29;;;;;;;2.10;0.80;;;;;;;8.99;100.00;97672.91;2611228;28;20166;-85
2022/09/18 04:23:44;;;;;;;3.40;0.75;;;;;;;9.11;100.00;97680.34;2611045;28;20487;-90
2022/09/18 04:25:00;;;;;;;2.05;0.73;;;;;;;9.02;100.00;97678.03;2612120;28;20049;-89
2022/09/18 04:26:15;;;;;;;4.32;0.70;;;;;;;8.98;100.00;97679.88;2612974;28;20575;-90
2022/09/18 04:27:33;;;;;;;2.63;0.70;;;;;;;9.17;100.00;97681.88;2613513;28;20045;-92
2022/09/18 04:28:49;;;;;;;2.53;0.55;;;;;;;9.25;100.00;97684.22;2611968;28;20059;-90
2022/09/18 04:30:04;;;;;;;4.32;1.00;;;;;;;9.24;100.00;97683.34;2612866;28;20085;-91
2022/09/18 04:31:20;;;;;;;5.35;0.60;;;;;;;9.09;100.00;97682.16;2611544;28;20048;-90
2022/09/18 04:32:36;;;;;;;1.23;0.65;;;;;;;9.04;100.00;97681.44;2611401;28;20590;-91
2022/09/18 04:33:51;;;;;;;3.30;1.45;;;;;;;9.18;100.00;97679.19;2613348;28;20055;-91
2022/09/18 04:35:07;;;;;;;2.13;0.80;;;;;;;9.16;100.00;97685.41;2611339;28;20052;-89
2022/09/18 04:36:23;;;;;;;7.55;1.00;;;;;;;9.04;100.00;97686.66;2612161;28;20053;-84
2022/09/18 04:37:41;;;;;;;2.30;0.70;;;;;;;9.07;100.00;97678.72;2611484;28;20045;-85
2022/09/18 04:38:57;;;;;;;3.20;0.60;;;;;;;9.03;100.00;97693.66;2612570;28;20056;-87
2022/09/18 04:40:12;;;;;;;1.17;0.60;;;;;;;9.10;100.00;97691.69;2614512;28;20107;-87
2022/09/18 04:41:28;;;;;;;3.47;0.73;;;;;;;9.09;100.00;97695.19;2619667;28;20535;-87
2022/09/18 04:42:44;;;;;;;4.07;1.00;;;;;;;9.07;100.00;97691.75;2619882;28;20051;-90
2022/09/18 04:43:59;;;;;;;5.35;0.98;;;;;;;9.27;100.00;97701.53;2620453;28;20048;-92
2022/09/18 04:45:15;;;;;;;1.75;0.70;;;;;;;9.15;100.00;97696.72;2619935;28;20060;-93
2022/09/18 04:46:30;;;;;;;0.40;0.35;;;;;;;9.06;100.00;97697.91;2612596;28;20049;-91
2022/09/18 04:47:47;;;;;;;3.53;0.60;;;;;;;9.12;100.00;97696.84;2612060;28;20084;-91
2022/09/18 04:49:02;;;;;;;2.88;0.80;;;;;;;9.40;100.00;97688.03;2615920;28;20495;-90
2022/09/18 04:50:18;;;;;;;1.23;0.50;;;;;;;9.18;100.00;97697.47;2617206;28;20071;-92
2022/09/18 04:51:33;;;;;;;1.25;0.47;;;;;;;9.22;100.00;97708.69;2615513;28;20477;-92
2022/09/18 04:52:49;;;;;;;4.43;0.82;;;;;;;9.39;100.00;97710.72;2611993;28;20056;-91
2022/09/18 04:54:05;;;;;;;3.15;0.70;;;;;;;9.21;100.00;97712.19;2610812;28;20514;-85
2022/09/18 04:55:20;;;;;;;6.40;0.88;;;;;;;9.29;100.00;97717.16;2612422;28;20045;-86
2022/09/18 04:56:36;;;;;;;2.90;0.68;;;;;;;9.25;100.00;97710.34;2610448;28;20049;-85
2022/09/18 04:57:51;;;;;;;3.30;0.77;;;;;;;9.27;100.00;97718.97;2608770;28;20208;-87
2022/09/18 04:59:07;;;;;;;7.13;0.93;;;;;;;9.16;100.00;97716.75;2608745;28;20053;-84
2022/09/18 05:00:22;;;;;;;2.65;0.88;;;;;;;9.44;100.00;97715.78;2611634;28;20067;-86
2022/09/18 05:01:39;;;;;;;3.13;0.73;;;;;;;9.37;100.00;97722.13;2608583;28;20423;-87
2022/09/18 05:02:54;;;;;;;3.80;0.80;;;;;;;9.29;100.00;97720.66;2611762;28;20098;-87
2022/09/18 05:04:10;;;;;;;1.52;0.80;;;;;;;9.12;100.00;97721.22;2612770;28;20247;-85
2022/09/18 05:05:27;;;;;;;5.07;1.10;;;;;;;9.27;100.00;97719.81;2611914;28;20511;-87
2022/09/18 05:06:42;;;;;;;6.05;0.80;;;;;;;9.37;100.00;97725.59;2610576;28;20692;-87
2022/09/18 05:07:59;;;;;;;2.03;0.80;;;;;;;9.44;100.00;97729.69;2612844;28;20082;-86
2022/09/18 05:09:14;;;;;;;2.65;0.73;;;;;;;9.30;100.00;97722.34;2612699;28;20045;-92
2022/09/18 05:10:30;;;;;;;3.97;0.90;;;;;;;9.22;100.00;97726.09;2611412;28;20053;-86
2022/09/18 05:11:46;;;;;;;2.60;0.77;;;;;;;9.18;100.00;97731.44;2610055;28;20057;-86
2022/09/18 05:13:01;;;;;;;6.05;0.70;;;;;;;9.08;100.00;97724.84;2610484;28;20418;-86
2022/09/18 05:14:17;;;;;;;2.80;0.95;;;;;;;9.07;100.00;97730.94;2610425;28;20136;-86
2022/09/18 05:15:32;;;;;;;0.80;0.70;;;;;;;9.26;100.00;97735.56;2610679;28;20045;-84
2022/09/18 05:16:48;;;;;;;2.22;1.00;;;;;;;9.35;100.00;97735.22;2609976;28;20145;-85
2022/09/18 05:18:06;;;;;;;2.65;0.70;;;;;;;9.22;100.00;97736.53;2609336;28;20509;-86
2022/09/18 05:19:22;;;;;;;1.38;0.88;;;;;;;9.18;100.00;97735.81;2611375;28;20048;-85
2022/09/18 05:20:38;;;;;;;3.20;0.82;;;;;;;9.30;100.00;97735.41;2611070;28;20053;-84
2022/09/18 05:21:54;;;;;;;2.35;0.60;;;;;;;9.24;100.00;97732.97;2610225;28;20454;-86
2022/09/18 05:23:09;;;;;;;3.40;0.90;;;;;;;9.40;100.00;97741.16;2606051;28;20702;-85
2022/09/18 05:24:25;;;;;;;1.58;0.88;;;;;;;9.44;100.00;97740.13;2609496;28;20083;-84
2022/09/18 05:25:41;;;;;;;1.35;0.60;;;;;;;9.15;100.00;97742.00;2609162;28;20567;-83
2022/09/18 05:26:57;;;;;;;3.42;1.05;;;;;;;9.13;100.00;97737.72;2609399;28;20048;-85
2022/09/18 05:28:14;;;;;;;5.53;1.10;;;;;;;9.25;100.00;97736.47;2609517;28;20520;-85
2022/09/18 05:29:29;;;;;;;4.15;1.05;;;;;;;9.28;100.00;97736.34;2608872;28;20504;-88
2022/09/18 05:30:45;;;;;;;8.18;2.65;;;;;;;9.13;100.00;97749.03;2611535;28;20053;-90
2022/09/18 05:32:01;;;;;;;4.15;1.13;;;;;;;9.28;100.00;97742.41;2609794;28;20057;-85
2022/09/18 05:33:17;;;;;;;1.77;1.15;;;;;;;9.06;100.00;97744.91;2609999;28;20041;-83
2022/09/18 05:34:32;;;;;;;4.18;0.90;;;;;;;9.08;100.00;97744.84;2610112;28;20054;-83
2022/09/18 05:35:52;;;;;;;4.07;0.88;;;;;;;9.06;100.00;97752.72;2609987;28;20519;-84
2022/09/18 05:37:09;;;;;;;2.22;0.68;;;;;;;9.15;100.00;97748.97;2610046;28;20048;-86
2022/09/18 05:38:25;;;;;;;6.40;1.30;;;;;;;9.23;100.00;97759.19;2610210;28;20077;-84
2022/09/18 05:39:41;;;;;;;3.03;1.10;;;;;;;9.17;100.00;97755.84;2608998;28;20415;-84
2022/09/18 05:41:00;;;;;;;3.55;0.90;;;;;;;9.32;100.00;97761.47;2609800;28;20055;-84
2022/09/18 05:42:16;;;;;;;1.33;0.73;;;;;;;9.43;100.00;97761.13;2608653;28;20082;-86
2022/09/18 05:43:32;;;;;;;1.20;0.70;;;;;;;9.37;100.00;97758.69;2608046;28;20130;-84
2022/09/18 05:44:48;;;;;;;2.05;1.00;;;;;;;9.43;100.00;97761.13;2610438;28;20052;-86
2022/09/18 05:46:03;;;;;;;3.25;0.95;;;;;;;9.28;100.00;97763.31;2609451;28;20510;-85
2022/09/18 05:47:19;;;;;;;6.35;0.90;;;;;;;9.39;100.00;97765.59;2611497;28;20130;-87
2022/09/18 05:48:35;;;;;;;5.68;0.70;;;;;;;9.26;100.00;97767.75;2612421;28;20049;-83
2022/09/18 05:49:50;;;;;;;8.10;0.73;;;;;;;9.26;100.00;97759.06;2611405;28;20053;-83
2022/09/18 05:51:08;;;;;;;2.30;0.70;;;;;;;9.42;100.00;97765.47;2612157;28;20073;-83
2022/09/18 05:52:24;;;;;;;3.40;1.10;;;;;;;9.40;100.00;97759.44;2610562;28;20583;-86
2022/09/18 05:53:41;;;;;;;2.85;0.57;;;;;;;9.09;100.00;97768.31;2611084;28;20212;-83
2022/09/18 05:54:57;;;;;;;1.25;0.80;;;;;;;9.04;100.00;97767.59;2610534;28;20167;-84
2022/09/18 05:56:14;;;;;;;2.33;0.90;;;;;;;9.22;100.00;97762.66;2612340;28;20640;-83
2022/09/18 05:57:30;;;;;;;3.38;0.80;;;;;;;9.33;100.00;97769.25;2610877;28;20072;-83
2022/09/18 05:58:46;;;;;;;2.53;0.70;;;;;;;9.10;100.00;97762.19;2611978;28;20079;-85
2022/09/18 06:00:01;;;;;;;2.47;0.65;;;;;;;9.28;100.00;97760.69;2612004;28;20501;-83
2022/09/18 06:01:17;;;;;;;2.28;0.63;;;;;;;9.37;100.00;97762.16;2611022;28;20206;-85
2022/09/18 06:02:33;;;;;;;1.85;0.80;;;;;;;9.37;100.00;97770.00;2611877;28;20098;-85
2022/09/18 06:03:49;;;;;;;2.60;0.68;;;;;;;9.31;100.00;97764.97;2610829;28;20414;-83
2022/09/18 06:05:05;;;;;;;2.67;0.70;;;;;;;9.22;100.00;97762.66;2611585;28;20048;-83
2022/09/18 06:06:21;;;;;;;4.38;0.88;;;;;;;9.28;100.00;97768.53;2610838;28;20150;-83
2022/09/18 06:07:36;;;;;;;4.80;1.10;;;;;;;9.26;100.00;97775.56;2612324;28;20465;-83
2022/09/18 06:08:52;;;;;;;2.55;0.75;;;;;;;9.29;100.00;97778.09;2611412;28;20076;-86
2022/09/18 06:10:08;;;;;;;5.60;0.88;;;;;;;9.39;100.00;97777.78;2610618;28;20056;-85
2022/09/18 06:11:23;;;;;;;2.47;0.50;;;;;;;9.47;100.00;97784.44;2610819;28;20060;-91
2022/09/18 06:12:39;;;;;;;1.15;0.60;;;;;;;9.31;100.00;97783.25;2611293;28;20615;-91
2022/09/18 06:13:55;;;;;;;2.63;0.63;;;;;;;9.39;100.00;97781.25;2614656;28;20048;-90